Terminal Aerodrome Forecast
Issued by NWS

Home | Current Version | Previous Version | Text Only | Print | Product List | Glossary On
Versions: 1 2 3 4 5 6 7 8 9 10 11 12 13 14 15 16 17 18 19 20 21 22 23 24 25 26 27 28 29 30 31 32
000
FTUS43 KAPX 200520
TAFTVC
TAF
KTVC 200520Z 2006/2106 00000KT P6SM SCT030 BKN045
      TEMPO 2009/2013 -SHSN BKN025
     FM201500 09005KT P6SM OVC035
     FM202300 10005KT P6SM VCSH OVC030
     FM210200 12008KT P6SM -SHRA OVC025=

USA.gov is the U.S. government's official web portal to all federal, state and local government web resources and services.